sensor_id;sensor_type;location;lat;lon;timestamp;temperature;humidity
16402;DHT22;8310;44.626;11.176;2022-12-07T00:01:04;8.50;77.80
16402;DHT22;8310;44.626;11.176;2022-12-07T00:03:32;8.50;77.90
16402;DHT22;8310;44.626;11.176;2022-12-07T00:06:01;8.50;78.00
16402;DHT22;8310;44.626;11.176;2022-12-07T00:08:30;8.50;77.90
16402;DHT22;8310;44.626;11.176;2022-12-07T00:11:01;8.50;77.90
16402;DHT22;8310;44.626;11.176;2022-12-07T00:13:29;8.40;77.90
16402;DHT22;8310;44.626;11.176;2022-12-07T00:16:01;8.40;77.90
16402;DHT22;8310;44.626;11.176;2022-12-07T00:18:29;8.40;77.90
16402;DHT22;8310;44.626;11.176;2022-12-07T00:20:59;8.40;77.90
16402;DHT22;8310;44.626;11.176;2022-12-07T00:23:30;8.40;77.90
16402;DHT22;8310;44.626;11.176;2022-12-07T00:26:03;8.40;78.00
16402;DHT22;8310;44.626;11.176;2022-12-07T00:28:31;8.40;78.10
16402;DHT22;8310;44.626;11.176;2022-12-07T00:31:01;8.40;78.20
16402;DHT22;8310;44.626;11.176;2022-12-07T00:33:29;8.50;78.30
16402;DHT22;8310;44.626;11.176;2022-12-07T00:35:57;8.50;78.40
16402;DHT22;8310;44.626;11.176;2022-12-07T00:38:26;8.50;78.40
16402;DHT22;8310;44.626;11.176;2022-12-07T00:40:57;8.60;78.20
16402;DHT22;8310;44.626;11.176;2022-12-07T00:43:25;8.50;78.20
16402;DHT22;8310;44.626;11.176;2022-12-07T00:45:53;8.50;78.20
16402;DHT22;8310;44.626;11.176;2022-12-07T00:48:22;8.60;78.30
16402;DHT22;8310;44.626;11.176;2022-12-07T00:50:50;8.50;78.30
16402;DHT22;8310;44.626;11.176;2022-12-07T00:53:17;8.60;78.50
16402;DHT22;8310;44.626;11.176;2022-12-07T00:55:46;8.60;78.50
16402;DHT22;8310;44.626;11.176;2022-12-07T00:58:15;8.60;78.40
16402;DHT22;8310;44.626;11.176;2022-12-07T01:00:43;8.60;78.40
16402;DHT22;8310;44.626;11.176;2022-12-07T01:03:13;8.60;78.40
16402;DHT22;8310;44.626;11.176;2022-12-07T01:05:49;8.60;78.50
16402;DHT22;8310;44.626;11.176;2022-12-07T01:08:17;8.60;78.40
16402;DHT22;8310;44.626;11.176;2022-12-07T01:10:44;8.60;78.30
16402;DHT22;8310;44.626;11.176;2022-12-07T01:13:12;8.60;78.40
16402;DHT22;8310;44.626;11.176;2022-12-07T01:15:42;8.60;78.40
16402;DHT22;8310;44.626;11.176;2022-12-07T01:18:10;8.70;78.50
16402;DHT22;8310;44.626;11.176;2022-12-07T01:20:37;8.70;78.50
16402;DHT22;8310;44.626;11.176;2022-12-07T01:23:05;8.70;78.50
16402;DHT22;8310;44.626;11.176;2022-12-07T01:25:32;8.70;78.60
16402;DHT22;8310;44.626;11.176;2022-12-07T01:27:59;8.70;78.50
16402;DHT22;8310;44.626;11.176;2022-12-07T01:30:27;8.70;78.40
16402;DHT22;8310;44.626;11.176;2022-12-07T01:32:59;8.60;78.30
16402;DHT22;8310;44.626;11.176;2022-12-07T01:35:26;8.60;79.00
16402;DHT22;8310;44.626;11.176;2022-12-07T01:37:54;8.60;78.20
16402;DHT22;8310;44.626;11.176;2022-12-07T01:40:25;8.50;78.20
16402;DHT22;8310;44.626;11.176;2022-12-07T01:42:53;8.50;78.30
16402;DHT22;8310;44.626;11.176;2022-12-07T01:45:39;8.50;78.30
16402;DHT22;8310;44.626;11.176;2022-12-07T01:48:09;8.50;78.30
16402;DHT22;8310;44.626;11.176;2022-12-07T01:50:38;8.50;78.30
16402;DHT22;8310;44.626;11.176;2022-12-07T01:53:09;8.50;78.40
16402;DHT22;8310;44.626;11.176;2022-12-07T01:55:40;8.50;78.40
16402;DHT22;8310;44.626;11.176;2022-12-07T01:58:10;8.50;78.40
16402;DHT22;8310;44.626;11.176;2022-12-07T02:00:39;8.50;78.40
16402;DHT22;8310;44.626;11.176;2022-12-07T02:03:11;8.50;78.40
16402;DHT22;8310;44.626;11.176;2022-12-07T02:05:41;8.60;78.50
16402;DHT22;8310;44.626;11.176;2022-12-07T02:08:11;8.50;78.40
16402;DHT22;8310;44.626;11.176;2022-12-07T02:10:39;8.50;78.40
16402;DHT22;8310;44.626;11.176;2022-12-07T02:13:11;8.50;78.40
16402;DHT22;8310;44.626;11.176;2022-12-07T02:15:50;8.50;78.40
16402;DHT22;8310;44.626;11.176;2022-12-07T02:18:25;8.50;78.40
16402;DHT22;8310;44.626;11.176;2022-12-07T02:21:03;8.50;78.40
16402;DHT22;8310;44.626;11.176;2022-12-07T02:23:46;8.50;78.40
16402;DHT22;8310;44.626;11.176;2022-12-07T02:29:19;8.50;78.40
16402;DHT22;8310;44.626;11.176;2022-12-07T02:31:56;8.50;78.40
16402;DHT22;8310;44.626;11.176;2022-12-07T02:34:32;8.50;78.50
16402;DHT22;8310;44.626;11.176;2022-12-07T02:37:05;8.50;78.50
16402;DHT22;8310;44.626;11.176;2022-12-07T02:39:41;8.50;78.50
16402;DHT22;8310;44.626;11.176;2022-12-07T02:42:15;8.50;78.50
16402;DHT22;8310;44.626;11.176;2022-12-07T02:44:46;8.50;78.50
16402;DHT22;8310;44.626;11.176;2022-12-07T02:47:16;8.50;78.50
16402;DHT22;8310;44.626;11.176;2022-12-07T02:49:45;8.50;78.50
16402;DHT22;8310;44.626;11.176;2022-12-07T02:52:13;8.50;78.50
16402;DHT22;8310;44.626;11.176;2022-12-07T02:54:41;8.50;78.50
16402;DHT22;8310;44.626;11.176;2022-12-07T02:57:21;8.50;78.40
16402;DHT22;8310;44.626;11.176;2022-12-07T03:00:01;8.50;78.50
16402;DHT22;8310;44.626;11.176;2022-12-07T03:02:38;8.50;78.50
16402;DHT22;8310;44.626;11.176;2022-12-07T03:05:15;8.50;78.60
16402;DHT22;8310;44.626;11.176;2022-12-07T03:07:51;8.50;78.60
16402;DHT22;8310;44.626;11.176;2022-12-07T03:10:24;8.50;78.60
16402;DHT22;8310;44.626;11.176;2022-12-07T03:13:01;8.50;78.50
16402;DHT22;8310;44.626;11.176;2022-12-07T03:15:33;8.50;78.60
16402;DHT22;8310;44.626;11.176;2022-12-07T03:18:04;8.50;78.60
16402;DHT22;8310;44.626;11.176;2022-12-07T03:20:32;8.50;78.60
16402;DHT22;8310;44.626;11.176;2022-12-07T03:23:03;8.50;78.70
16402;DHT22;8310;44.626;11.176;2022-12-07T03:25:34;8.50;78.70
16402;DHT22;8310;44.626;11.176;2022-12-07T03:28:07;8.50;78.70
16402;DHT22;8310;44.626;11.176;2022-12-07T03:30:42;8.80;78.90
16402;DHT22;8310;44.626;11.176;2022-12-07T03:33:16;8.50;78.70
16402;DHT22;8310;44.626;11.176;2022-12-07T03:35:51;8.60;78.90
16402;DHT22;8310;44.626;11.176;2022-12-07T03:38:23;8.60;78.90
16402;DHT22;8310;44.626;11.176;2022-12-07T03:40:57;8.60;78.90
16402;DHT22;8310;44.626;11.176;2022-12-07T03:43:28;8.60;78.90
16402;DHT22;8310;44.626;11.176;2022-12-07T03:46:06;8.60;78.80
16402;DHT22;8310;44.626;11.176;2022-12-07T03:48:40;8.60;78.90
16402;DHT22;8310;44.626;11.176;2022-12-07T03:51:13;8.60;78.90
16402;DHT22;8310;44.626;11.176;2022-12-07T03:53:48;8.60;78.80
16402;DHT22;8310;44.626;11.176;2022-12-07T03:56:18;8.60;78.90
16402;DHT22;8310;44.626;11.176;2022-12-07T03:58:49;8.60;78.90
16402;DHT22;8310;44.626;11.176;2022-12-07T04:01:19;8.60;78.90
16402;DHT22;8310;44.626;11.176;2022-12-07T04:03:47;8.50;78.80
16402;DHT22;8310;44.626;11.176;2022-12-07T04:06:14;8.60;78.90
16402;DHT22;8310;44.626;11.176;2022-12-07T04:08:42;8.60;78.90
16402;DHT22;8310;44.626;11.176;2022-12-07T04:11:10;8.60;79.00
16402;DHT22;8310;44.626;11.176;2022-12-07T04:13:38;8.60;79.00
16402;DHT22;8310;44.626;11.176;2022-12-07T04:16:20;8.60;79.00
16402;DHT22;8310;44.626;11.176;2022-12-07T04:18:47;8.60;79.00
16402;DHT22;8310;44.626;11.176;2022-12-07T04:21:15;8.60;79.00
16402;DHT22;8310;44.626;11.176;2022-12-07T04:23:43;8.60;78.90
16402;DHT22;8310;44.626;11.176;2022-12-07T04:26:11;8.70;79.00
16402;DHT22;8310;44.626;11.176;2022-12-07T04:28:40;8.70;79.00
16402;DHT22;8310;44.626;11.176;2022-12-07T04:31:08;8.70;78.90
16402;DHT22;8310;44.626;11.176;2022-12-07T04:33:37;8.70;79.00
16402;DHT22;8310;44.626;11.176;2022-12-07T04:36:06;8.70;78.90
16402;DHT22;8310;44.626;11.176;2022-12-07T04:38:34;8.70;79.00
16402;DHT22;8310;44.626;11.176;2022-12-07T04:41:04;8.70;79.00
16402;DHT22;8310;44.626;11.176;2022-12-07T04:43:32;8.70;78.90
16402;DHT22;8310;44.626;11.176;2022-12-07T04:46:00;8.70;79.00
16402;DHT22;8310;44.626;11.176;2022-12-07T04:48:28;8.70;79.00
16402;DHT22;8310;44.626;11.176;2022-12-07T04:50:59;8.70;78.90
16402;DHT22;8310;44.626;11.176;2022-12-07T04:53:26;8.70;78.90
16402;DHT22;8310;44.626;11.176;2022-12-07T04:55:54;8.70;79.00
16402;DHT22;8310;44.626;11.176;2022-12-07T04:58:27;8.60;78.90
16402;DHT22;8310;44.626;11.176;2022-12-07T05:00:55;8.60;78.90
16402;DHT22;8310;44.626;11.176;2022-12-07T05:03:22;8.70;79.00
16402;DHT22;8310;44.626;11.176;2022-12-07T05:05:50;8.70;79.00
16402;DHT22;8310;44.626;11.176;2022-12-07T05:08:19;8.70;78.90
16402;DHT22;8310;44.626;11.176;2022-12-07T05:10:48;8.70;79.00
16402;DHT22;8310;44.626;11.176;2022-12-07T05:13:16;8.60;78.90
16402;DHT22;8310;44.626;11.176;2022-12-07T05:15:43;8.60;78.90
16402;DHT22;8310;44.626;11.176;2022-12-07T05:18:11;8.60;79.00
16402;DHT22;8310;44.626;11.176;2022-12-07T05:20:39;8.60;78.90
16402;DHT22;8310;44.626;11.176;2022-12-07T05:23:07;8.50;78.90
16402;DHT22;8310;44.626;11.176;2022-12-07T05:25:36;8.50;78.90
16402;DHT22;8310;44.626;11.176;2022-12-07T05:28:04;8.50;78.90
16402;DHT22;8310;44.626;11.176;2022-12-07T05:30:32;8.50;78.90
16402;DHT22;8310;44.626;11.176;2022-12-07T05:33:00;8.40;78.80
16402;DHT22;8310;44.626;11.176;2022-12-07T05:35:28;8.40;78.80
16402;DHT22;8310;44.626;11.176;2022-12-07T05:37:56;8.40;78.80
16402;DHT22;8310;44.626;11.176;2022-12-07T05:40:24;8.40;78.80
16402;DHT22;8310;44.626;11.176;2022-12-07T05:42:53;8.40;79.60
16402;DHT22;8310;44.626;11.176;2022-12-07T05:45:20;8.40;79.00
16402;DHT22;8310;44.626;11.176;2022-12-07T05:47:48;8.40;79.00
16402;DHT22;8310;44.626;11.176;2022-12-07T05:50:15;8.40;79.00
16402;DHT22;8310;44.626;11.176;2022-12-07T05:52:43;8.40;79.10
16402;DHT22;8310;44.626;11.176;2022-12-07T05:55:11;8.40;79.00
16402;DHT22;8310;44.626;11.176;2022-12-07T05:57:39;8.40;79.00
16402;DHT22;8310;44.626;11.176;2022-12-07T06:00:28;8.40;78.90
16402;DHT22;8310;44.626;11.176;2022-12-07T06:02:54;8.50;79.00
16402;DHT22;8310;44.626;11.176;2022-12-07T06:05:22;8.50;79.00
16402;DHT22;8310;44.626;11.176;2022-12-07T06:07:49;8.50;79.00
16402;DHT22;8310;44.626;11.176;2022-12-07T06:10:17;8.50;79.00
16402;DHT22;8310;44.626;11.176;2022-12-07T06:12:46;8.50;79.00
16402;DHT22;8310;44.626;11.176;2022-12-07T06:15:12;8.50;79.00
16402;DHT22;8310;44.626;11.176;2022-12-07T06:17:41;8.50;79.10
16402;DHT22;8310;44.626;11.176;2022-12-07T06:20:09;8.50;79.00
16402;DHT22;8310;44.626;11.176;2022-12-07T06:22:37;8.50;79.10
16402;DHT22;8310;44.626;11.176;2022-12-07T06:25:05;8.50;78.90
16402;DHT22;8310;44.626;11.176;2022-12-07T06:27:34;8.50;79.00
16402;DHT22;8310;44.626;11.176;2022-12-07T06:30:03;8.50;79.00
16402;DHT22;8310;44.626;11.176;2022-12-07T06:32:34;8.50;78.90
16402;DHT22;8310;44.626;11.176;2022-12-07T06:35:03;8.50;79.00
16402;DHT22;8310;44.626;11.176;2022-12-07T06:37:30;8.50;79.00
16402;DHT22;8310;44.626;11.176;2022-12-07T06:39:58;8.50;79.00
16402;DHT22;8310;44.626;11.176;2022-12-07T06:42:25;8.50;79.10
16402;DHT22;8310;44.626;11.176;2022-12-07T06:44:53;8.50;79.20
16402;DHT22;8310;44.626;11.176;2022-12-07T06:47:21;8.50;79.20
16402;DHT22;8310;44.626;11.176;2022-12-07T06:49:48;8.50;79.10
16402;DHT22;8310;44.626;11.176;2022-12-07T06:52:19;8.50;79.10
16402;DHT22;8310;44.626;11.176;2022-12-07T06:54:47;8.50;79.10
16402;DHT22;8310;44.626;11.176;2022-12-07T06:57:15;8.50;79.20
16402;DHT22;8310;44.626;11.176;2022-12-07T06:59:42;8.60;79.30
16402;DHT22;8310;44.626;11.176;2022-12-07T07:02:10;8.60;79.20
16402;DHT22;8310;44.626;11.176;2022-12-07T07:04:37;8.60;79.20
16402;DHT22;8310;44.626;11.176;2022-12-07T07:07:05;8.60;79.30
16402;DHT22;8310;44.626;11.176;2022-12-07T07:09:34;8.60;79.30
16402;DHT22;8310;44.626;11.176;2022-12-07T07:12:02;8.60;79.20
16402;DHT22;8310;44.626;11.176;2022-12-07T07:14:30;8.70;79.40
16402;DHT22;8310;44.626;11.176;2022-12-07T07:16:57;8.70;79.30
16402;DHT22;8310;44.626;11.176;2022-12-07T07:19:25;8.70;79.30
16402;DHT22;8310;44.626;11.176;2022-12-07T07:21:52;8.70;79.40
16402;DHT22;8310;44.626;11.176;2022-12-07T07:24:20;8.70;79.30
16402;DHT22;8310;44.626;11.176;2022-12-07T07:26:49;8.80;79.40
16402;DHT22;8310;44.626;11.176;2022-12-07T07:29:17;8.80;80.10
16402;DHT22;8310;44.626;11.176;2022-12-07T07:31:44;8.80;79.40
16402;DHT22;8310;44.626;11.176;2022-12-07T07:34:14;8.80;79.30
16402;DHT22;8310;44.626;11.176;2022-12-07T07:36:42;8.80;79.40
16402;DHT22;8310;44.626;11.176;2022-12-07T07:39:10;8.80;79.40
16402;DHT22;8310;44.626;11.176;2022-12-07T07:41:38;8.80;79.40
16402;DHT22;8310;44.626;11.176;2022-12-07T07:44:07;8.80;79.30
16402;DHT22;8310;44.626;11.176;2022-12-07T07:46:34;8.70;79.20
16402;DHT22;8310;44.626;11.176;2022-12-07T07:49:02;8.70;79.10
16402;DHT22;8310;44.626;11.176;2022-12-07T07:51:29;8.70;79.20
16402;DHT22;8310;44.626;11.176;2022-12-07T07:53:57;8.60;79.10
16402;DHT22;8310;44.626;11.176;2022-12-07T07:56:25;8.60;79.10
16402;DHT22;8310;44.626;11.176;2022-12-07T07:58:52;8.50;79.00
16402;DHT22;8310;44.626;11.176;2022-12-07T08:01:21;8.50;79.10
16402;DHT22;8310;44.626;11.176;2022-12-07T08:03:49;8.50;79.10
16402;DHT22;8310;44.626;11.176;2022-12-07T08:06:17;8.40;79.20
16402;DHT22;8310;44.626;11.176;2022-12-07T08:08:45;8.40;79.20
16402;DHT22;8310;44.626;11.176;2022-12-07T08:11:12;8.50;79.30
16402;DHT22;8310;44.626;11.176;2022-12-07T08:13:40;8.40;79.30
16402;DHT22;8310;44.626;11.176;2022-12-07T08:16:09;8.50;79.40
16402;DHT22;8310;44.626;11.176;2022-12-07T08:18:39;8.50;79.40
16402;DHT22;8310;44.626;11.176;2022-12-07T08:21:11;8.50;79.50
16402;DHT22;8310;44.626;11.176;2022-12-07T08:23:38;8.50;79.50
16402;DHT22;8310;44.626;11.176;2022-12-07T08:26:14;8.50;79.50
16402;DHT22;8310;44.626;11.176;2022-12-07T08:28:43;8.50;79.50
16402;DHT22;8310;44.626;11.176;2022-12-07T08:31:13;8.50;79.50
16402;DHT22;8310;44.626;11.176;2022-12-07T08:33:44;8.50;79.60
16402;DHT22;8310;44.626;11.176;2022-12-07T08:36:12;8.50;79.60
16402;DHT22;8310;44.626;11.176;2022-12-07T08:38:40;8.50;79.70
16402;DHT22;8310;44.626;11.176;2022-12-07T08:41:08;8.60;79.70
16402;DHT22;8310;44.626;11.176;2022-12-07T08:43:37;8.60;79.70
16402;DHT22;8310;44.626;11.176;2022-12-07T08:46:09;8.70;79.80
16402;DHT22;8310;44.626;11.176;2022-12-07T08:48:42;8.70;79.80
16402;DHT22;8310;44.626;11.176;2022-12-07T08:51:13;8.80;79.90
16402;DHT22;8310;44.626;11.176;2022-12-07T08:53:41;8.90;79.90
16402;DHT22;8310;44.626;11.176;2022-12-07T08:56:09;8.90;79.90
16402;DHT22;8310;44.626;11.176;2022-12-07T08:58:38;8.90;79.90
16402;DHT22;8310;44.626;11.176;2022-12-07T09:01:06;9.00;79.90
16402;DHT22;8310;44.626;11.176;2022-12-07T09:03:33;9.00;80.00
16402;DHT22;8310;44.626;11.176;2022-12-07T09:06:03;9.10;80.00
16402;DHT22;8310;44.626;11.176;2022-12-07T09:08:33;9.10;80.00
16402;DHT22;8310;44.626;11.176;2022-12-07T09:11:03;9.20;80.10
16402;DHT22;8310;44.626;11.176;2022-12-07T09:13:31;9.20;80.00
16402;DHT22;8310;44.626;11.176;2022-12-07T09:15:59;9.20;79.90
16402;DHT22;8310;44.626;11.176;2022-12-07T09:18:26;9.30;79.90
16402;DHT22;8310;44.626;11.176;2022-12-07T09:20:54;9.30;79.70
16402;DHT22;8310;44.626;11.176;2022-12-07T09:23:23;9.20;79.60
16402;DHT22;8310;44.626;11.176;2022-12-07T09:25:51;9.20;79.60
16402;DHT22;8310;44.626;11.176;2022-12-07T09:28:18;9.20;79.60
16402;DHT22;8310;44.626;11.176;2022-12-07T09:30:46;9.20;79.60
16402;DHT22;8310;44.626;11.176;2022-12-07T09:33:14;9.20;79.70
16402;DHT22;8310;44.626;11.176;2022-12-07T09:35:49;9.30;79.90
16402;DHT22;8310;44.626;11.176;2022-12-07T09:38:18;9.30;79.90
16402;DHT22;8310;44.626;11.176;2022-12-07T09:40:47;9.30;80.00
16402;DHT22;8310;44.626;11.176;2022-12-07T09:43:16;9.40;80.00
16402;DHT22;8310;44.626;11.176;2022-12-07T09:45:54;9.40;80.00
16402;DHT22;8310;44.626;11.176;2022-12-07T09:48:27;9.50;80.20
16402;DHT22;8310;44.626;11.176;2022-12-07T09:50:58;9.50;80.20
16402;DHT22;8310;44.626;11.176;2022-12-07T09:53:28;9.60;80.30
16402;DHT22;8310;44.626;11.176;2022-12-07T09:55:59;9.60;80.20
16402;DHT22;8310;44.626;11.176;2022-12-07T09:58:28;9.60;80.30
16402;DHT22;8310;44.626;11.176;2022-12-07T10:00:59;9.70;80.30
16402;DHT22;8310;44.626;11.176;2022-12-07T10:03:29;9.70;80.20
16402;DHT22;8310;44.626;11.176;2022-12-07T10:05:57;9.70;80.10
16402;DHT22;8310;44.626;11.176;2022-12-07T10:08:25;9.70;80.10
16402;DHT22;8310;44.626;11.176;2022-12-07T10:10:54;9.70;80.10
16402;DHT22;8310;44.626;11.176;2022-12-07T10:13:34;9.70;80.00
16402;DHT22;8310;44.626;11.176;2022-12-07T10:16:02;9.70;80.00
16402;DHT22;8310;44.626;11.176;2022-12-07T10:18:32;9.70;80.00
16402;DHT22;8310;44.626;11.176;2022-12-07T10:21:12;9.70;80.00
16402;DHT22;8310;44.626;11.176;2022-12-07T10:23:41;9.70;80.00
16402;DHT22;8310;44.626;11.176;2022-12-07T10:26:29;9.70;79.90
16402;DHT22;8310;44.626;11.176;2022-12-07T10:29:02;9.70;79.90
16402;DHT22;8310;44.626;11.176;2022-12-07T10:31:30;9.70;79.90
16402;DHT22;8310;44.626;11.176;2022-12-07T10:33:59;9.60;79.80
16402;DHT22;8310;44.626;11.176;2022-12-07T10:36:34;9.60;80.00
16402;DHT22;8310;44.626;11.176;2022-12-07T10:39:11;9.60;80.20
16402;DHT22;8310;44.626;11.176;2022-12-07T10:41:53;9.60;80.40
16402;DHT22;8310;44.626;11.176;2022-12-07T10:44:23;9.70;80.60
16402;DHT22;8310;44.626;11.176;2022-12-07T10:50:32;9.90;80.70
16402;DHT22;8310;44.626;11.176;2022-12-07T10:53:22;9.90;80.70
16402;DHT22;8310;44.626;11.176;2022-12-07T10:56:08;10.00;80.70
16402;DHT22;8310;44.626;11.176;2022-12-07T10:58:48;10.00;80.70
16402;DHT22;8310;44.626;11.176;2022-12-07T11:01:24;10.10;80.70
16402;DHT22;8310;44.626;11.176;2022-12-07T11:04:12;10.10;80.70
16402;DHT22;8310;44.626;11.176;2022-12-07T11:06:47;10.10;80.70
16402;DHT22;8310;44.626;11.176;2022-12-07T11:09:55;10.10;80.70
16402;DHT22;8310;44.626;11.176;2022-12-07T11:12:33;10.20;80.90
16402;DHT22;8310;44.626;11.176;2022-12-07T11:15:13;10.30;81.10
16402;DHT22;8310;44.626;11.176;2022-12-07T11:17:48;10.30;81.00
16402;DHT22;8310;44.626;11.176;2022-12-07T11:20:33;10.40;81.30
16402;DHT22;8310;44.626;11.176;2022-12-07T11:23:06;10.50;81.40
16402;DHT22;8310;44.626;11.176;2022-12-07T11:25:43;10.60;81.50
16402;DHT22;8310;44.626;11.176;2022-12-07T11:28:27;10.60;81.50
16402;DHT22;8310;44.626;11.176;2022-12-07T11:31:07;10.70;81.80
16402;DHT22;8310;44.626;11.176;2022-12-07T11:33:43;10.90;82.30
16402;DHT22;8310;44.626;11.176;2022-12-07T11:36:25;11.10;82.30
16402;DHT22;8310;44.626;11.176;2022-12-07T11:38:59;11.30;82.40
16402;DHT22;8310;44.626;11.176;2022-12-07T11:41:29;11.50;82.70
16402;DHT22;8310;44.626;11.176;2022-12-07T11:44:02;11.70;82.80
16402;DHT22;8310;44.626;11.176;2022-12-07T11:46:46;11.80;82.60
16402;DHT22;8310;44.626;11.176;2022-12-07T11:49:23;12.00;82.40
16402;DHT22;8310;44.626;11.176;2022-12-07T11:51:53;12.20;82.70
16402;DHT22;8310;44.626;11.176;2022-12-07T11:54:26;12.30;82.50
16402;DHT22;8310;44.626;11.176;2022-12-07T11:57:01;12.30;82.30
16402;DHT22;8310;44.626;11.176;2022-12-07T11:59:37;12.40;82.30
16402;DHT22;8310;44.626;11.176;2022-12-07T12:02:13;12.40;82.30
16402;DHT22;8310;44.626;11.176;2022-12-07T12:04:51;12.50;82.30
16402;DHT22;8310;44.626;11.176;2022-12-07T12:07:23;12.60;82.50
16402;DHT22;8310;44.626;11.176;2022-12-07T12:09:54;12.80;82.40
16402;DHT22;8310;44.626;11.176;2022-12-07T12:15:38;12.80;81.80
16402;DHT22;8310;44.626;11.176;2022-12-07T12:18:26;12.70;81.20
16402;DHT22;8310;44.626;11.176;2022-12-07T12:21:00;12.60;81.10
16402;DHT22;8310;44.626;11.176;2022-12-07T12:23:36;12.60;81.20
16402;DHT22;8310;44.626;11.176;2022-12-07T12:26:06;12.50;80.90
16402;DHT22;8310;44.626;11.176;2022-12-07T12:28:39;12.40;80.80
16402;DHT22;8310;44.626;11.176;2022-12-07T12:31:11;12.40;80.90
16402;DHT22;8310;44.626;11.176;2022-12-07T12:33:43;12.40;81.10
16402;DHT22;8310;44.626;11.176;2022-12-07T12:36:45;12.40;81.20
16402;DHT22;8310;44.626;11.176;2022-12-07T12:39:14;12.40;81.10
16402;DHT22;8310;44.626;11.176;2022-12-07T12:42:05;12.40;81.20
16402;DHT22;8310;44.626;11.176;2022-12-07T12:45:18;12.50;81.30
16402;DHT22;8310;44.626;11.176;2022-12-07T12:47:57;12.50;81.20
16402;DHT22;8310;44.626;11.176;2022-12-07T12:50:28;12.40;81.10
16402;DHT22;8310;44.626;11.176;2022-12-07T12:53:14;12.50;81.20
16402;DHT22;8310;44.626;11.176;2022-12-07T12:56:10;12.50;81.40
16402;DHT22;8310;44.626;11.176;2022-12-07T12:58:44;12.60;81.90
16402;DHT22;8310;44.626;11.176;2022-12-07T13:01:44;12.80;82.70
16402;DHT22;8310;44.626;11.176;2022-12-07T13:07:12;13.30;83.00
16402;DHT22;8310;44.626;11.176;2022-12-07T13:09:45;13.50;82.50
16402;DHT22;8310;44.626;11.176;2022-12-07T13:12:14;13.50;82.10
16402;DHT22;8310;44.626;11.176;2022-12-07T13:14:58;13.50;81.60
16402;DHT22;8310;44.626;11.176;2022-12-07T13:21:00;13.30;81.00
16402;DHT22;8310;44.626;11.176;2022-12-07T13:23:33;13.20;80.60
16402;DHT22;8310;44.626;11.176;2022-12-07T13:26:14;13.10;80.70
16402;DHT22;8310;44.626;11.176;2022-12-07T13:28:44;13.00;80.70
16402;DHT22;8310;44.626;11.176;2022-12-07T13:31:23;12.90;80.60
16402;DHT22;8310;44.626;11.176;2022-12-07T13:33:53;12.90;80.50
16402;DHT22;8310;44.626;11.176;2022-12-07T13:36:25;12.80;80.40
16402;DHT22;8310;44.626;11.176;2022-12-07T13:38:55;12.80;80.60
16402;DHT22;8310;44.626;11.176;2022-12-07T13:41:26;12.80;80.50
16402;DHT22;8310;44.626;11.176;2022-12-07T13:44:02;12.70;80.30
16402;DHT22;8310;44.626;11.176;2022-12-07T13:46:44;12.60;80.20
16402;DHT22;8310;44.626;11.176;2022-12-07T13:49:20;12.60;80.10
16402;DHT22;8310;44.626;11.176;2022-12-07T13:51:49;12.60;80.00
16402;DHT22;8310;44.626;11.176;2022-12-07T13:54:17;12.50;79.90
16402;DHT22;8310;44.626;11.176;2022-12-07T13:56:50;12.50;80.00
16402;DHT22;8310;44.626;11.176;2022-12-07T13:59:20;12.50;79.90
16402;DHT22;8310;44.626;11.176;2022-12-07T14:01:49;12.30;79.80
16402;DHT22;8310;44.626;11.176;2022-12-07T14:04:30;12.30;79.90
16402;DHT22;8310;44.626;11.176;2022-12-07T14:06:59;12.30;80.10
16402;DHT22;8310;44.626;11.176;2022-12-07T14:09:29;12.30;80.20
16402;DHT22;8310;44.626;11.176;2022-12-07T14:11:58;12.40;80.40
16402;DHT22;8310;44.626;11.176;2022-12-07T14:14:32;12.40;80.40
16402;DHT22;8310;44.626;11.176;2022-12-07T14:17:02;12.50;80.50
16402;DHT22;8310;44.626;11.176;2022-12-07T14:19:45;12.50;80.70
16402;DHT22;8310;44.626;11.176;2022-12-07T14:22:27;12.70;80.90
16402;DHT22;8310;44.626;11.176;2022-12-07T14:25:00;12.80;80.70
16402;DHT22;8310;44.626;11.176;2022-12-07T14:27:33;12.90;80.70
16402;DHT22;8310;44.626;11.176;2022-12-07T14:30:02;12.90;80.50
16402;DHT22;8310;44.626;11.176;2022-12-07T14:32:31;13.00;80.60
16402;DHT22;8310;44.626;11.176;2022-12-07T14:35:01;13.00;80.50
16402;DHT22;8310;44.626;11.176;2022-12-07T14:37:30;13.00;80.50
16402;DHT22;8310;44.626;11.176;2022-12-07T14:39:57;13.10;80.20
16402;DHT22;8310;44.626;11.176;2022-12-07T14:42:33;13.10;80.20
16402;DHT22;8310;44.626;11.176;2022-12-07T14:45:01;13.10;80.10
16402;DHT22;8310;44.626;11.176;2022-12-07T14:47:28;13.10;79.90
16402;DHT22;8310;44.626;11.176;2022-12-07T14:49:56;13.10;79.80
16402;DHT22;8310;44.626;11.176;2022-12-07T14:52:26;13.00;79.70
16402;DHT22;8310;44.626;11.176;2022-12-07T14:54:54;13.00;79.70
16402;DHT22;8310;44.626;11.176;2022-12-07T14:57:22;13.00;79.70
16402;DHT22;8310;44.626;11.176;2022-12-07T14:59:51;13.00;79.70
16402;DHT22;8310;44.626;11.176;2022-12-07T15:02:19;13.00;79.60
16402;DHT22;8310;44.626;11.176;2022-12-07T15:04:46;13.00;79.60
16402;DHT22;8310;44.626;11.176;2022-12-07T15:07:18;12.90;79.40
16402;DHT22;8310;44.626;11.176;2022-12-07T15:09:46;12.80;79.30
16402;DHT22;8310;44.626;11.176;2022-12-07T15:12:16;12.70;79.20
16402;DHT22;8310;44.626;11.176;2022-12-07T15:14:44;12.60;79.20
16402;DHT22;8310;44.626;11.176;2022-12-07T15:17:13;12.50;79.00
16402;DHT22;8310;44.626;11.176;2022-12-07T15:19:40;12.40;79.00
16402;DHT22;8310;44.626;11.176;2022-12-07T15:22:08;12.30;78.90
16402;DHT22;8310;44.626;11.176;2022-12-07T15:24:37;12.20;79.00
16402;DHT22;8310;44.626;11.176;2022-12-07T15:27:05;12.00;78.80
16402;DHT22;8310;44.626;11.176;2022-12-07T15:29:34;12.00;78.90
16402;DHT22;8310;44.626;11.176;2022-12-07T15:32:01;11.80;78.90
16402;DHT22;8310;44.626;11.176;2022-12-07T15:34:30;11.80;78.90
16402;DHT22;8310;44.626;11.176;2022-12-07T15:36:57;11.70;78.90
16402;DHT22;8310;44.626;11.176;2022-12-07T15:39:25;11.60;78.80
16402;DHT22;8310;44.626;11.176;2022-12-07T15:41:52;11.50;78.80
16402;DHT22;8310;44.626;11.176;2022-12-07T15:44:20;11.40;78.70
16402;DHT22;8310;44.626;11.176;2022-12-07T15:47:05;11.40;78.80
16402;DHT22;8310;44.626;11.176;2022-12-07T15:49:34;11.30;78.70
16402;DHT22;8310;44.626;11.176;2022-12-07T15:52:02;11.20;78.70
16402;DHT22;8310;44.626;11.176;2022-12-07T15:54:37;11.10;78.60
16402;DHT22;8310;44.626;11.176;2022-12-07T15:57:05;11.00;78.50
16402;DHT22;8310;44.626;11.176;2022-12-07T15:59:32;10.90;78.50
16402;DHT22;8310;44.626;11.176;2022-12-07T16:02:00;10.80;78.60
16402;DHT22;8310;44.626;11.176;2022-12-07T16:04:28;10.70;78.40
16402;DHT22;8310;44.626;11.176;2022-12-07T16:06:57;10.70;78.50
16402;DHT22;8310;44.626;11.176;2022-12-07T16:09:24;10.60;78.40
16402;DHT22;8310;44.626;11.176;2022-12-07T16:11:52;10.50;78.30
16402;DHT22;8310;44.626;11.176;2022-12-07T16:14:21;10.40;78.30
16402;DHT22;8310;44.626;11.176;2022-12-07T16:16:49;10.30;78.30
16402;DHT22;8310;44.626;11.176;2022-12-07T16:19:16;10.20;78.30
16402;DHT22;8310;44.626;11.176;2022-12-07T16:21:44;10.20;78.30